Time;durP1;ratioP1;P1;durP2;ratioP2;P2;SDS_P1;SDS_P2;PMS_P1;PMS_P2;Temp;Humidity;BMP_temperature;BMP_pressure;BME280_temperature;BME280_humidity;BME280_pressure;Samples;Min_cycle;Max_cycle;Signal;HPM_P1;HPM_P2
2023/10/05 00:01:27;;;;;;;4.37;2.73;;;;;;;14.95;54.07;98436.09;5031128;28;20473;-73
2023/10/05 00:03:53;;;;;;;4.10;2.40;;;;;;;14.88;54.46;98434.03;5032303;28;20522;-73
2023/10/05 00:06:25;;;;;;;4.77;2.50;;;;;;;14.84;54.59;98430.06;5033841;28;20521;-72
2023/10/05 00:08:56;;;;;;;3.83;2.27;;;;;;;14.92;54.57;98423.19;5034208;28;20218;-72
2023/10/05 00:11:29;;;;;;;3.73;2.33;;;;;;;14.88;54.55;98420.03;5031468;28;20442;-72
2023/10/05 00:13:59;;;;;;;3.73;2.60;;;;;;;14.88;54.78;98420.84;5030664;28;21165;-72
2023/10/05 00:16:37;;;;;;;5.30;2.97;;;;;;;14.82;54.76;98418.81;5031444;28;20519;-72
2023/10/05 00:19:13;;;;;;;5.17;2.50;;;;;;;14.70;55.22;98415.53;5016277;28;20445;-72
2023/10/05 00:22:14;;;;;;;2.90;2.20;;;;;;;14.69;55.03;98411.25;5029374;28;20454;-72
2023/10/05 00:24:36;;;;;;;4.77;2.73;;;;;;;14.73;54.77;98414.44;5028563;28;20735;-72
2023/10/05 00:27:04;;;;;;;8.33;3.10;;;;;;;14.70;54.44;98412.91;5028499;28;20820;-72
2023/10/05 00:29:40;;;;;;;4.50;2.80;;;;;;;14.61;54.61;98423.50;5038182;28;20465;-73
2023/10/05 00:32:15;;;;;;;6.90;2.53;;;;;;;14.66;54.72;98408.06;5031565;28;20525;-71
2023/10/05 00:34:47;;;;;;;5.30;2.53;;;;;;;14.63;54.50;98414.47;5037398;28;20496;-72
2023/10/05 00:37:13;;;;;;;4.50;2.40;;;;;;;14.67;55.03;98399.16;5042899;28;20520;-69
2023/10/05 00:39:39;;;;;;;6.20;2.43;;;;;;;14.59;54.96;98400.75;5038328;28;20438;-70
2023/10/05 00:42:11;;;;;;;4.10;2.40;;;;;;;14.56;55.15;98390.47;5037421;28;20427;-71
2023/10/05 00:44:39;;;;;;;4.03;2.10;;;;;;;14.67;55.04;98389.47;5040468;28;20433;-71
2023/10/05 00:47:05;;;;;;;8.13;2.57;;;;;;;14.65;55.22;98394.03;5031443;28;20574;-72
2023/10/05 00:52:18;;;;;;;5.50;2.17;;;;;;;14.67;54.84;98396.53;5024427;28;20465;-70
2023/10/05 00:54:50;;;;;;;5.80;3.10;;;;;;;14.67;54.46;98392.13;5031717;28;20454;-70
2023/10/05 00:57:19;;;;;;;3.37;2.17;;;;;;;14.61;54.33;98386.56;5028439;28;20498;-71
2023/10/05 00:59:54;;;;;;;4.67;2.20;;;;;;;14.62;54.46;98378.50;5039988;28;20466;-71
2023/10/05 01:02:22;;;;;;;2.87;2.20;;;;;;;14.45;54.81;98369.59;5031769;28;20552;-71
2023/10/05 01:07:26;;;;;;;2.47;2.20;;;;;;;14.55;54.96;98365.06;5035253;28;20511;-71
2023/10/05 01:10:22;;;;;;;9.53;2.37;;;;;;;14.46;55.39;98360.69;5025274;28;20676;-70
2023/10/05 01:12:47;;;;;;;3.30;2.40;;;;;;;14.48;55.34;98356.13;5033885;28;20436;-70
2023/10/05 01:15:19;;;;;;;7.13;2.70;;;;;;;14.44;55.50;98354.75;5037088;28;20433;-71
2023/10/05 01:17:44;;;;;;;4.10;2.50;;;;;;;14.37;55.40;98348.38;5037543;28;20476;-72
2023/10/05 01:20:22;;;;;;;10.73;2.67;;;;;;;14.44;55.23;98349.47;5027263;28;20528;-70
2023/10/05 01:22:48;;;;;;;4.23;2.47;;;;;;;14.44;55.28;98344.19;5036163;28;20187;-72
2023/10/05 01:25:14;;;;;;;4.60;2.40;;;;;;;14.46;55.28;98346.66;5026348;28;20430;-71
2023/10/05 01:27:45;;;;;;;3.37;2.20;;;;;;;14.43;55.25;98343.34;5033742;28;20545;-69
2023/10/05 01:30:12;;;;;;;4.50;2.57;;;;;;;14.46;55.17;98336.97;5028084;28;20275;-71
2023/10/05 01:32:40;;;;;;;4.50;2.60;;;;;;;14.45;55.38;98348.50;5028463;28;20426;-70
2023/10/05 01:35:09;;;;;;;3.47;2.40;;;;;;;14.45;55.43;98364.31;5036229;28;20452;-72
2023/10/05 01:37:36;;;;;;;3.50;2.57;;;;;;;14.48;55.33;98358.75;5026001;28;20907;-71
2023/10/05 01:40:11;;;;;;;5.47;2.57;;;;;;;14.47;55.41;98362.38;5034923;28;20430;-72
2023/10/05 01:42:40;;;;;;;2.93;2.10;;;;;;;14.53;55.07;98353.84;5039658;28;20429;-72
2023/10/05 01:45:07;;;;;;;3.57;2.50;;;;;;;14.52;55.14;98357.44;5030768;28;20496;-71
2023/10/05 01:47:33;;;;;;;4.13;2.60;;;;;;;14.50;55.16;98362.03;5038945;28;20532;-73
2023/10/05 01:49:58;;;;;;;5.63;2.47;;;;;;;14.47;55.31;98349.19;5030710;28;20518;-71
2023/10/05 01:52:23;;;;;;;3.67;2.30;;;;;;;14.46;55.38;98347.50;5036359;28;20280;-71
2023/10/05 01:54:51;;;;;;;3.70;2.57;;;;;;;14.47;55.62;98343.06;5027804;28;20274;-71
2023/10/05 01:57:16;;;;;;;4.20;2.50;;;;;;;14.51;55.66;98337.31;5030725;28;20211;-71
2023/10/05 01:59:43;;;;;;;4.60;2.70;;;;;;;14.57;55.87;98339.38;5028053;28;20438;-70
2023/10/05 02:02:13;;;;;;;4.43;2.47;;;;;;;14.64;55.50;98338.75;5030668;28;20180;-71
2023/10/05 02:04:43;;;;;;;7.60;2.17;;;;;;;14.70;54.95;98339.03;5027602;28;20430;-71
2023/10/05 02:07:09;;;;;;;3.90;1.90;;;;;;;14.62;55.16;98343.38;5030769;28;20434;-70
2023/10/05 02:09:37;;;;;;;4.77;2.67;;;;;;;14.59;55.19;98341.84;5020492;28;20430;-71
2023/10/05 02:12:06;;;;;;;7.27;2.30;;;;;;;14.52;55.36;98344.25;5032539;28;20506;-70
2023/10/05 02:14:32;;;;;;;3.53;1.90;;;;;;;14.51;55.37;98345.25;5040344;28;20945;-73
2023/10/05 02:17:00;;;;;;;4.60;2.00;;;;;;;14.42;55.63;98339.06;5031379;28;20454;-71
2023/10/05 02:19:25;;;;;;;4.90;2.10;;;;;;;14.41;55.82;98339.22;5031388;28;20438;-71
2023/10/05 02:21:55;;;;;;;3.30;2.10;;;;;;;14.39;55.92;98334.09;5039226;28;20425;-72
2023/10/05 02:24:29;;;;;;;8.40;2.20;;;;;;;14.40;55.92;98332.28;5033031;28;20313;-71
2023/10/05 02:29:31;;;;;;;5.77;2.87;;;;;;;14.38;56.10;98334.22;5035345;28;20427;-70
2023/10/05 02:34:35;;;;;;;4.20;2.57;;;;;;;14.38;56.03;98340.34;5030252;28;20430;-71
2023/10/05 02:37:01;;;;;;;4.40;2.33;;;;;;;14.35;55.79;98335.38;5039545;28;20548;-70
2023/10/05 02:39:26;;;;;;;3.43;2.10;;;;;;;14.31;55.97;98327.91;5011141;28;21035;-70
2023/10/05 02:41:54;;;;;;;3.40;2.10;;;;;;;14.26;56.09;98328.34;5040062;28;20324;-70
2023/10/05 02:44:27;;;;;;;4.90;2.47;;;;;;;14.20;56.14;98342.97;5035028;28;20273;-72
2023/10/05 02:46:52;;;;;;;4.90;2.33;;;;;;;14.22;56.09;98335.72;5032715;28;20426;-70
2023/10/05 02:49:19;;;;;;;5.33;2.70;;;;;;;14.16;56.23;98340.78;5027883;28;20430;-70
2023/10/05 02:51:46;;;;;;;3.93;2.80;;;;;;;14.09;56.29;98325.53;5027467;28;20202;-71
2023/10/05 02:54:12;;;;;;;2.50;2.30;;;;;;;14.15;56.43;98328.56;5030666;28;20437;-70
2023/10/05 02:56:41;;;;;;;4.00;2.50;;;;;;;14.17;56.33;98334.53;5030333;28;20466;-70
2023/10/05 02:59:08;;;;;;;5.00;2.40;;;;;;;14.24;56.43;98333.75;5042178;28;20442;-70
2023/10/05 03:01:34;;;;;;;4.57;2.33;;;;;;;14.20;56.35;98340.31;5033985;28;20439;-69
2023/10/05 03:04:09;;;;;;;6.73;2.20;;;;;;;14.14;56.30;98330.34;5036671;28;20426;-71
2023/10/05 03:06:34;;;;;;;4.17;2.20;;;;;;;14.17;56.23;98319.50;5037195;28;20516;-70
2023/10/05 03:09:07;;;;;;;5.13;2.60;;;;;;;14.18;56.27;98323.81;5032506;28;20453;-69
2023/10/05 03:11:42;;;;;;;5.00;2.10;;;;;;;14.15;56.49;98313.56;5029940;28;20250;-71
2023/10/05 03:14:11;;;;;;;4.03;2.47;;;;;;;14.19;56.58;98316.72;5028261;28;20841;-69
2023/10/05 03:16:44;;;;;;;3.70;2.80;;;;;;;14.25;56.62;98319.59;5033586;28;20484;-67
2023/10/05 03:19:15;;;;;;;7.63;2.60;;;;;;;14.29;56.58;98314.88;5017816;28;20438;-71
2023/10/05 03:21:41;;;;;;;4.33;2.40;;;;;;;14.32;56.66;98316.38;5045232;28;20417;-71
2023/10/05 03:24:13;;;;;;;3.27;2.30;;;;;;;14.35;56.47;98326.63;5011526;28;20799;-71
2023/10/05 03:26:40;;;;;;;2.43;2.10;;;;;;;14.36;56.35;98317.75;5035946;28;20437;-70
2023/10/05 03:29:06;;;;;;;4.67;2.63;;;;;;;14.44;55.95;98312.53;5041542;28;20855;-72
2023/10/05 03:31:37;;;;;;;2.83;2.20;;;;;;;14.44;56.32;98323.09;5026141;28;20441;-71
2023/10/05 03:34:05;;;;;;;3.77;2.50;;;;;;;14.47;56.20;98322.81;5042007;28;20516;-71
2023/10/05 03:36:33;;;;;;;6.60;3.10;;;;;;;14.44;56.10;98317.81;5042340;28;20481;-72
2023/10/05 03:39:03;;;;;;;3.57;2.60;;;;;;;14.38;56.32;98328.94;5045044;28;20988;-71
2023/10/05 03:41:28;;;;;;;4.70;2.03;;;;;;;14.35;56.37;98329.28;5032089;28;20507;-72
2023/10/05 03:44:02;;;;;;;4.30;2.60;;;;;;;14.36;56.48;98336.22;5040596;28;20425;-71
2023/10/05 03:46:27;;;;;;;4.90;2.80;;;;;;;14.38;56.42;98337.72;5014416;28;20557;-72
2023/10/05 03:49:00;;;;;;;3.67;2.60;;;;;;;14.33;56.44;98333.88;5025116;28;20454;-70
2023/10/05 03:51:26;;;;;;;3.83;2.27;;;;;;;14.26;56.15;98331.81;5029163;28;20195;-71
2023/10/05 03:53:52;;;;;;;2.90;2.17;;;;;;;14.19;56.85;98333.38;5030097;28;20426;-69
2023/10/05 03:56:23;;;;;;;5.00;2.60;;;;;;;14.21;56.95;98331.44;5029070;28;20454;-70
2023/10/05 03:58:50;;;;;;;3.13;2.30;;;;;;;14.23;57.09;98347.94;5021360;28;20446;-72
2023/10/05 04:01:15;;;;;;;4.60;2.50;;;;;;;14.33;56.74;98344.41;5029693;28;20454;-71
2023/10/05 04:03:44;;;;;;;4.57;2.40;;;;;;;14.34;56.60;98338.97;5028541;28;20450;-71
2023/10/05 04:06:20;;;;;;;4.00;2.20;;;;;;;14.26;56.85;98349.44;5029194;28;20176;-71
2023/10/05 04:08:51;;;;;;;4.23;2.53;;;;;;;14.26;56.85;98344.97;5031563;28;20429;-71
2023/10/05 04:11:17;;;;;;;3.47;2.43;;;;;;;14.20;57.12;98340.31;5040333;28;20914;-71
2023/10/05 04:13:43;;;;;;;5.83;2.70;;;;;;;14.29;57.08;98346.53;5023318;28;20521;-71
2023/10/05 04:16:21;;;;;;;5.23;3.10;;;;;;;14.29;56.84;98359.69;5035894;28;20453;-71
2023/10/05 04:18:50;;;;;;;5.97;2.60;;;;;;;14.31;56.87;98349.81;5029242;28;20468;-71
2023/10/05 04:21:18;;;;;;;5.43;2.97;;;;;;;14.34;56.81;98349.53;5035662;28;20797;-70
2023/10/05 04:23:46;;;;;;;6.30;2.50;;;;;;;14.38;56.94;98344.78;5028003;28;20426;-70
2023/10/05 04:26:11;;;;;;;6.17;3.10;;;;;;;14.39;57.04;98351.72;5035563;28;20440;-70
2023/10/05 04:28:41;;;;;;;3.57;2.23;;;;;;;14.36;56.94;98344.13;5029365;28;20450;-72
2023/10/05 04:31:13;;;;;;;2.80;2.33;;;;;;;14.41;56.80;98350.59;5037183;28;20192;-70
2023/10/05 04:33:42;;;;;;;3.50;2.30;;;;;;;14.39;56.81;98336.72;5028177;28;20466;-70
2023/10/05 04:36:07;;;;;;;4.03;2.60;;;;;;;14.35;57.02;98339.81;5030461;28;20508;-71
2023/10/05 04:38:33;;;;;;;4.53;2.90;;;;;;;14.36;57.04;98337.03;5026854;28;20450;-72
2023/10/05 04:40:58;;;;;;;4.03;2.70;;;;;;;14.36;57.42;98341.47;5029963;28;20266;-72
2023/10/05 04:43:24;;;;;;;3.57;2.47;;;;;;;14.35;57.42;98339.81;5035255;28;20285;-70
2023/10/05 04:45:51;;;;;;;7.23;2.80;;;;;;;14.33;57.49;98339.94;5024368;28;20203;-71
2023/10/05 04:48:18;;;;;;;3.97;2.80;;;;;;;14.39;57.62;98335.88;5033311;28;20235;-72
2023/10/05 04:50:44;;;;;;;5.07;3.00;;;;;;;14.37;57.42;98337.84;5036827;28;20419;-71
2023/10/05 04:53:10;;;;;;;3.90;2.60;;;;;;;14.36;57.74;98341.47;5030779;28;20427;-71
2023/10/05 04:55:42;;;;;;;6.03;2.47;;;;;;;14.35;57.70;98339.81;5035568;28;20195;-71
2023/10/05 04:58:22;;;;;;;3.87;2.60;;;;;;;14.34;57.67;98343.44;5029828;28;20465;-71
2023/10/05 05:08:26;;;;;;;4.67;2.60;;;;;;;14.36;57.75;98337.03;5037876;28;20516;-72
2023/10/05 05:10:52;;;;;;;5.70;3.03;;;;;;;14.33;57.84;98331.22;5030821;28;20440;-71
2023/10/05 05:13:20;;;;;;;4.53;2.90;;;;;;;14.37;57.67;98335.19;5027639;28;20513;-70
2023/10/05 05:15:45;;;;;;;4.13;2.90;;;;;;;14.38;57.56;98329.78;5032762;28;20211;-72
2023/10/05 05:18:14;;;;;;;10.90;3.10;;;;;;;14.38;57.36;98328.94;5026844;28;20453;-71
2023/10/05 05:20:41;;;;;;;9.13;2.40;;;;;;;14.40;57.16;98330.47;5034262;28;20188;-70
2023/10/05 05:23:07;;;;;;;6.23;3.17;;;;;;;14.44;56.89;98328.38;5027349;28;20939;-70
2023/10/05 05:25:32;;;;;;;5.87;3.00;;;;;;;14.47;56.93;98336.00;5028865;28;20434;-70
2023/10/05 05:28:01;;;;;;;6.27;3.43;;;;;;;14.38;56.78;98331.59;5040465;28;20342;-72
2023/10/05 05:30:26;;;;;;;4.80;2.33;;;;;;;14.33;56.89;98337.31;5037476;28;20191;-69
2023/10/05 05:32:56;;;;;;;6.60;2.90;;;;;;;14.40;56.96;98342.81;5029402;28;20422;-70
2023/10/05 05:35:22;;;;;;;8.57;2.73;;;;;;;14.40;56.89;98340.19;5038868;28;20195;-70
2023/10/05 05:37:48;;;;;;;4.17;2.60;;;;;;;14.43;57.18;98342.53;5031974;28;20493;-73
2023/10/05 05:40:13;;;;;;;6.00;3.20;;;;;;;14.41;56.64;98340.06;5028081;28;20454;-71
2023/10/05 05:42:40;;;;;;;10.10;3.60;;;;;;;14.41;56.98;98344.47;5034211;28;20191;-73
2023/10/05 05:45:11;;;;;;;4.63;2.87;;;;;;;14.43;57.03;98353.91;5036722;28;20699;-71
2023/10/05 05:47:36;;;;;;;4.93;2.57;;;;;;;14.42;56.95;98351.41;5031729;28;20530;-72
2023/10/05 05:50:03;;;;;;;5.00;2.77;;;;;;;14.42;57.14;98357.53;5031970;28;20429;-72
2023/10/05 05:52:28;;;;;;;7.77;3.00;;;;;;;14.43;57.18;98353.91;5041355;28;20191;-71
2023/10/05 05:54:54;;;;;;;6.33;2.93;;;;;;;14.46;56.85;98357.22;5033612;28;20981;-70
2023/10/05 05:57:20;;;;;;;9.10;3.10;;;;;;;14.46;57.02;98351.94;5024691;28;20231;-70
2023/10/05 05:59:46;;;;;;;5.97;3.03;;;;;;;14.47;56.99;98349.19;5034550;28;20205;-71
2023/10/05 06:02:12;;;;;;;13.50;3.20;;;;;;;14.44;57.24;98350.28;5035927;28;20513;-71
2023/10/05 06:04:41;;;;;;;7.33;3.40;;;;;;;14.49;57.36;98343.75;5029558;28;20626;-71
2023/10/05 06:07:13;;;;;;;6.07;2.90;;;;;;;14.49;57.35;98349.84;5035038;28;20207;-71
2023/10/05 06:09:43;;;;;;;5.90;3.27;;;;;;;14.44;57.35;98350.28;5026975;28;20422;-71
2023/10/05 06:12:12;;;;;;;5.27;3.17;;;;;;;14.45;57.44;98353.78;5025911;28;20428;-71
2023/10/05 06:14:39;;;;;;;5.37;3.20;;;;;;;14.55;57.46;98354.53;5032004;28;20429;-71
2023/10/05 06:17:05;;;;;;;8.53;3.50;;;;;;;14.57;57.37;98352.56;5037817;28;20476;-71
2023/10/05 06:19:31;;;;;;;3.60;3.00;;;;;;;14.64;57.13;98352.81;5028016;28;20434;-71
2023/10/05 06:21:56;;;;;;;5.07;2.80;;;;;;;14.56;56.91;98352.69;5041492;28;20206;-70
2023/10/05 06:24:23;;;;;;;4.20;2.73;;;;;;;14.47;56.55;98359.72;5028052;28;20567;-72
2023/10/05 06:26:49;;;;;;;4.80;3.20;;;;;;;14.55;57.24;98361.63;5026779;28;20186;-72
2023/10/05 06:29:14;;;;;;;6.43;3.40;;;;;;;14.43;56.86;98356.53;5027013;28;20426;-73
2023/10/05 06:31:46;;;;;;;7.13;3.20;;;;;;;14.43;57.45;98350.44;5034614;28;20199;-72
2023/10/05 06:34:11;;;;;;;5.50;3.00;;;;;;;14.52;57.20;98354.81;5039481;28;20187;-71
2023/10/05 06:36:37;;;;;;;8.27;3.40;;;;;;;14.55;57.29;98367.72;5036121;28;20449;-72
2023/10/05 06:39:12;;;;;;;8.20;3.60;;;;;;;14.61;57.17;98370.75;5036173;28;20226;-71
2023/10/05 06:41:40;;;;;;;5.03;2.90;;;;;;;14.69;57.42;98389.31;5036347;28;20270;-69
2023/10/05 06:44:07;;;;;;;8.07;3.27;;;;;;;14.80;57.26;98383.00;5030401;28;20533;-69
2023/10/05 06:46:33;;;;;;;6.53;3.10;;;;;;;14.83;56.91;98386.16;5031278;28;20494;-70
2023/10/05 06:48:58;;;;;;;11.03;3.60;;;;;;;14.83;56.71;98388.81;5032162;28;20545;-71
2023/10/05 06:51:27;;;;;;;8.10;2.70;;;;;;;14.88;57.08;98383.06;5034281;28;20278;-70
2023/10/05 06:53:53;;;;;;;6.50;3.43;;;;;;;14.81;57.13;98395.19;5027028;28;20310;-69
2023/10/05 06:56:22;;;;;;;7.23;3.10;;;;;;;14.87;57.05;98390.13;5038867;28;20494;-69
2023/10/05 06:58:48;;;;;;;19.20;3.80;;;;;;;14.94;57.18;98386.91;5028557;28;20461;-69
2023/10/05 07:01:14;;;;;;;6.10;3.60;;;;;;;15.05;57.34;98399.88;5044769;28;20429;-70
2023/10/05 07:03:40;;;;;;;12.50;3.67;;;;;;;15.18;57.66;98399.50;5037905;28;20194;-69
2023/10/05 07:06:05;;;;;;;11.57;3.90;;;;;;;15.23;57.48;98399.84;5028497;28;20930;-69
2023/10/05 07:08:34;;;;;;;11.00;4.30;;;;;;;15.30;57.41;98402.72;5030087;28;20210;-69
2023/10/05 07:11:00;;;;;;;10.00;3.97;;;;;;;15.40;57.38;98400.81;5038931;28;20190;-70
2023/10/05 07:13:28;;;;;;;10.03;3.97;;;;;;;15.45;57.11;98401.19;5028429;28;20481;-69
2023/10/05 07:15:55;;;;;;;6.90;3.70;;;;;;;15.56;57.10;98402.75;5029494;28;20227;-70
2023/10/05 07:18:20;;;;;;;4.87;3.57;;;;;;;15.68;57.30;98405.97;5031046;28;20458;-71
2023/10/05 07:20:46;;;;;;;10.40;3.90;;;;;;;15.77;57.38;98410.31;5043682;28;20434;-71
2023/10/05 07:23:11;;;;;;;8.60;3.87;;;;;;;15.86;57.31;98413.03;5037505;28;20196;-70
2023/10/05 07:25:37;;;;;;;6.10;3.37;;;;;;;15.93;57.34;98409.63;5034096;28;20191;-70
2023/10/05 07:28:03;;;;;;;6.97;3.30;;;;;;;16.02;57.25;98407.81;5030546;28;20215;-71
2023/10/05 07:30:29;;;;;;;7.27;3.90;;;;;;;16.09;57.14;98402.72;5030676;28;20943;-71
2023/10/05 07:32:54;;;;;;;6.90;3.40;;;;;;;16.20;57.11;98404.28;5030522;28;20195;-71
2023/10/05 07:35:20;;;;;;;10.47;3.60;;;;;;;16.31;57.28;98406.63;5037240;28;20248;-70
2023/10/05 07:37:47;;;;;;;9.10;3.53;;;;;;;16.39;56.89;98408.47;5031199;28;20208;-69
2023/10/05 07:40:15;;;;;;;10.93;3.80;;;;;;;16.47;56.57;98410.31;5030804;28;20524;-71
2023/10/05 07:42:41;;;;;;;8.37;4.23;;;;;;;16.56;56.18;98417.28;5038582;28;20429;-70
2023/10/05 07:45:07;;;;;;;7.70;3.67;;;;;;;16.62;56.04;98424.59;5032646;28;20576;-70
2023/10/05 07:47:39;;;;;;;7.30;3.97;;;;;;;16.71;56.01;98407.75;5030643;28;20607;-70
2023/10/05 07:50:05;;;;;;;8.43;4.23;;;;;;;16.81;55.89;98414.69;5032800;28;20799;-70
2023/10/05 07:52:32;;;;;;;10.40;3.23;;;;;;;16.91;55.79;98423.31;5035445;28;20469;-70
2023/10/05 07:54:57;;;;;;;8.67;4.30;;;;;;;17.08;55.95;98428.69;5034127;28;20855;-70
2023/10/05 07:57:22;;;;;;;7.63;4.80;;;;;;;17.23;55.99;98428.84;5032088;28;20580;-70
2023/10/05 07:59:48;;;;;;;10.03;3.90;;;;;;;17.37;55.51;98428.19;5028986;28;20279;-71
2023/10/05 08:02:14;;;;;;;8.13;3.90;;;;;;;17.47;54.76;98420.06;5035106;28;20264;-70
2023/10/05 08:04:40;;;;;;;8.27;3.60;;;;;;;17.57;54.35;98426.03;5029372;28;20198;-70
2023/10/05 08:07:06;;;;;;;6.13;4.03;;;;;;;17.65;53.98;98427.84;5035749;28;20198;-71
2023/10/05 08:09:31;;;;;;;6.43;4.03;;;;;;;17.72;53.91;98425.34;5040551;28;20465;-70
2023/10/05 08:11:57;;;;;;;11.23;3.43;;;;;;;17.80;53.70;98428.81;5036541;28;20195;-71
2023/10/05 08:14:26;;;;;;;12.83;3.60;;;;;;;17.87;53.24;98423.66;5034631;28;20282;-70
2023/10/05 08:16:52;;;;;;;5.40;3.30;;;;;;;17.95;53.17;98426.28;5030958;28;20294;-70
2023/10/05 08:19:19;;;;;;;13.93;3.40;;;;;;;18.04;52.62;98428.94;5031966;28;20440;-71
2023/10/05 08:21:45;;;;;;;16.00;3.13;;;;;;;18.14;52.38;98442.84;5037279;28;20194;-71
2023/10/05 08:24:11;;;;;;;8.00;3.30;;;;;;;18.25;51.84;98437.16;5036498;28;20439;-71
2023/10/05 08:26:39;;;;;;;6.20;3.17;;;;;;;18.36;51.89;98438.59;5036280;28;20482;-71
2023/10/05 08:29:06;;;;;;;9.43;3.60;;;;;;;18.47;51.70;98445.38;5036829;28;20469;-70
2023/10/05 08:31:32;;;;;;;8.40;3.40;;;;;;;18.56;51.44;98452.28;5029504;28;20438;-70
2023/10/05 08:34:00;;;;;;;13.00;3.80;;;;;;;18.61;50.59;98461.56;5031796;28;20453;-71
2023/10/05 08:36:26;;;;;;;9.80;4.13;;;;;;;18.71;50.35;98456.88;5035389;28;20473;-72
2023/10/05 08:38:54;;;;;;;7.60;3.80;;;;;;;18.86;50.55;98454.28;5028907;28;20446;-70
2023/10/05 08:41:36;;;;;;;8.97;3.60;;;;;;;19.03;50.28;98457.69;5037952;28;20677;-71
2023/10/05 08:44:10;;;;;;;10.50;4.40;;;;;;;19.19;49.23;98454.94;5030783;28;20434;-71
2023/10/05 08:46:43;;;;;;;9.03;3.57;;;;;;;19.32;48.82;98443.72;5037139;28;20497;-71
2023/10/05 08:49:12;;;;;;;13.90;3.60;;;;;;;19.56;48.35;98438.34;5038382;28;21116;-71
2023/10/05 08:51:39;;;;;;;11.67;4.70;;;;;;;19.79;47.15;98444.44;5024496;28;20426;-72
2023/10/05 08:54:09;;;;;;;7.30;3.70;;;;;;;20.04;46.63;98440.75;5041969;28;20466;-71
2023/10/05 08:56:37;;;;;;;10.73;3.67;;;;;;;20.38;45.86;98442.84;5036558;28;20473;-72
2023/10/05 08:59:07;;;;;;;14.67;4.20;;;;;;;20.72;45.10;98438.72;5024403;28;20455;-72
2023/10/05 09:01:33;;;;;;;11.00;3.80;;;;;;;21.05;43.97;98425.97;5042757;28;20898;-71
2023/10/05 09:06:47;;;;;;;12.50;4.53;;;;;;;21.54;42.98;98429.69;5040200;28;20419;-70
2023/10/05 09:09:39;;;;;;;9.70;4.20;;;;;;;21.69;41.80;98432.28;5039947;28;20567;-70
2023/10/05 09:12:38;;;;;;;15.00;4.77;;;;;;;21.67;41.70;98439.69;5031841;28;20441;-71
2023/10/05 09:15:27;;;;;;;11.07;4.07;;;;;;;21.67;41.47;98424.47;5033607;28;20450;-73
2023/10/05 09:17:58;;;;;;;9.60;4.57;;;;;;;21.65;41.41;98433.72;5033486;28;20470;-71
2023/10/05 09:20:38;;;;;;;11.17;4.17;;;;;;;21.59;41.97;98427.28;5024445;28;20487;-71
2023/10/05 09:23:09;;;;;;;12.60;4.57;;;;;;;21.65;41.31;98431.03;5027792;28;20554;-70
2023/10/05 09:25:37;;;;;;;14.57;4.63;;;;;;;21.70;41.19;98431.25;5028545;28;20437;-70
2023/10/05 09:28:16;;;;;;;18.60;5.00;;;;;;;21.71;41.00;98430.25;5031853;28;20462;-71
2023/10/05 09:30:50;;;;;;;15.20;4.23;;;;;;;21.72;nan;98437.22;5030794;28;20430;-71
2023/10/05 09:33:18;;;;;;;10.90;4.70;;;;;;;21.80;41.24;98442.41;5030646;28;20439;-72
2023/10/05 09:35:46;;;;;;;9.73;4.40;;;;;;;21.93;41.03;98441.69;5036652;28;20472;-72
2023/10/05 09:38:19;;;;;;;9.03;4.40;;;;;;;22.03;40.44;98438.69;5030474;28;20450;-70
2023/10/05 09:40:47;;;;;;;14.40;4.80;;;;;;;22.13;39.43;98444.47;5034958;28;20426;-71
2023/10/05 09:43:18;;;;;;;12.53;5.00;;;;;;;22.29;39.31;98445.19;5035322;28;20470;-70
2023/10/05 09:45:45;;;;;;;12.33;4.90;;;;;;;22.45;38.83;98444.06;5041341;28;20529;-71
2023/10/05 09:48:13;;;;;;;17.13;5.77;;;;;;;22.67;38.21;98439.41;5035843;28;20489;-69
2023/10/05 09:50:38;;;;;;;11.43;4.77;;;;;;;22.85;37.93;98453.03;5036311;28;20529;-73
2023/10/05 09:53:06;;;;;;;11.60;5.03;;;;;;;22.97;37.36;98445.25;5028236;28;20521;-70
2023/10/05 09:55:32;;;;;;;10.40;4.40;;;;;;;23.04;37.00;98453.28;5033761;28;20554;-71
2023/10/05 09:58:12;;;;;;;11.57;4.70;;;;;;;23.07;37.60;98463.56;5033059;28;20457;-72
2023/10/05 10:03:05;;;;;;;13.20;5.30;;;;;;;23.27;37.03;98452.91;5042059;28;20413;-73
2023/10/05 10:05:37;;;;;;;14.97;4.30;;;;;;;23.43;36.89;98437.50;5032300;28;20422;-70
2023/10/05 10:08:11;;;;;;;9.00;4.73;;;;;;;23.47;36.69;98430.72;5028011;28;20841;-71
2023/10/05 10:10:40;;;;;;;10.90;4.73;;;;;;;23.49;35.93;98433.19;5034155;28;20435;-70
2023/10/05 10:13:11;;;;;;;11.80;4.63;;;;;;;23.50;36.33;98433.00;5030598;28;20427;-71
2023/10/05 10:15:39;;;;;;;9.23;4.47;;;;;;;23.65;36.38;98442.63;5037768;28;20434;-71
2023/10/05 10:18:14;;;;;;;12.23;4.20;;;;;;;23.82;35.88;98435.03;5027132;28;20490;-70
2023/10/05 10:20:47;;;;;;;9.50;4.27;;;;;;;24.00;35.59;98437.09;5036027;28;20430;-72
2023/10/05 10:23:26;;;;;;;8.50;3.70;;;;;;;24.08;35.15;98428.81;5026407;28;20446;-70
2023/10/05 10:26:05;;;;;;;10.00;4.93;;;;;;;24.13;35.09;98434.34;5027676;28;20427;-70
2023/10/05 10:31:26;;;;;;;16.07;3.40;;;;;;;24.68;34.21;98444.66;5025214;28;20529;-69
2023/10/05 10:33:52;;;;;;;7.50;4.23;;;;;;;24.97;33.71;98442.47;5027858;28;20430;-69
2023/10/05 10:36:23;;;;;;;8.47;3.83;;;;;;;25.14;33.63;98442.75;5037828;28;20462;-70
2023/10/05 10:38:50;;;;;;;7.87;3.97;;;;;;;25.20;33.69;98446.47;5038881;28;20238;-70
2023/10/05 10:41:16;;;;;;;11.83;4.80;;;;;;;25.33;33.48;98447.41;5029744;28;20434;-70
2023/10/05 10:43:53;;;;;;;14.20;6.07;;;;;;;25.45;33.91;98453.75;5035737;28;20455;-70
2023/10/05 10:46:30;;;;;;;18.83;5.97;;;;;;;25.55;33.50;98443.31;5031728;28;20795;-70
2023/10/05 10:48:59;;;;;;;10.90;4.57;;;;;;;25.41;33.23;98447.97;5033831;28;20495;-70
2023/10/05 10:51:31;;;;;;;13.30;4.80;;;;;;;25.43;33.74;98447.75;5031520;28;20429;-70
2023/10/05 10:53:59;;;;;;;13.13;4.40;;;;;;;25.23;33.34;98448.69;5031536;28;20842;-70
2023/10/05 10:56:28;;;;;;;15.57;4.67;;;;;;;25.02;32.95;98443.69;5033917;28;20457;-70
2023/10/05 10:58:57;;;;;;;11.00;4.27;;;;;;;25.05;33.11;98443.25;5037448;28;20458;-71
2023/10/05 11:01:29;;;;;;;11.53;4.40;;;;;;;24.99;33.11;98450.31;5040770;28;20467;-70
2023/10/05 11:04:04;;;;;;;13.20;4.33;;;;;;;24.85;33.30;98444.19;5042868;28;20437;-70
2023/10/05 11:06:30;;;;;;;13.77;4.97;;;;;;;24.89;34.18;98434.69;5035808;28;20425;-70
2023/10/05 11:08:59;;;;;;;10.63;4.00;;;;;;;24.74;34.67;98434.16;5037674;28;20444;-70
2023/10/05 11:11:25;;;;;;;9.40;4.27;;;;;;;24.57;34.65;98428.44;5035846;28;20439;-71
2023/10/05 11:14:00;;;;;;;8.53;4.33;;;;;;;24.34;34.78;98429.78;5028895;28;20437;-70
2023/10/05 11:16:43;;;;;;;7.07;3.20;;;;;;;24.07;34.94;98438.69;5042158;28;20484;-71
2023/10/05 11:19:13;;;;;;;13.93;4.30;;;;;;;23.82;35.70;98433.16;5026553;28;20455;-70
2023/10/05 11:21:45;;;;;;;10.90;4.17;;;;;;;23.65;35.75;98440.81;5035854;28;20437;-71
2023/10/05 11:24:14;;;;;;;12.20;3.90;;;;;;;23.53;35.93;98439.78;5031626;28;20939;-69
2023/10/05 11:27:05;;;;;;;11.23;4.40;;;;;;;23.33;36.07;98437.91;5037109;28;20446;-70
2023/10/05 11:29:42;;;;;;;10.73;3.97;;;;;;;23.23;36.39;98443.69;5035664;28;20421;-70
2023/10/05 11:32:12;;;;;;;11.30;3.80;;;;;;;23.13;36.45;98441.38;5033025;28;20945;-69
2023/10/05 11:34:42;;;;;;;8.63;3.40;;;;;;;23.08;36.27;98435.78;5027464;28;20427;-69
2023/10/05 11:37:18;;;;;;;16.27;4.77;;;;;;;22.92;36.28;98430.84;5028904;28;20457;-70
2023/10/05 11:39:49;;;;;;;9.63;3.73;;;;;;;22.80;37.24;98428.78;5023831;28;20977;-71
2023/10/05 11:42:23;;;;;;;12.17;3.97;;;;;;;22.85;37.21;98441.53;5036028;28;20438;-71
2023/10/05 11:44:49;;;;;;;13.30;4.40;;;;;;;22.83;36.55;98441.72;5037881;28;20436;-71
2023/10/05 11:47:32;;;;;;;9.60;4.37;;;;;;;22.80;36.61;98434.13;5041423;28;20990;-71
2023/10/05 11:50:06;;;;;;;11.57;3.60;;;;;;;22.79;36.70;98428.94;5025483;28;20675;-71
2023/10/05 11:52:32;;;;;;;7.70;3.57;;;;;;;22.81;36.90;98437.59;5047165;28;20798;-71
2023/10/05 11:54:57;;;;;;;8.40;3.50;;;;;;;22.77;36.60;98439.00;5039252;28;20427;-71
2023/10/05 11:57:23;;;;;;;8.13;4.00;;;;;;;22.71;37.09;98443.31;5029099;28;20215;-71
2023/10/05 11:59:48;;;;;;;10.40;4.60;;;;;;;22.75;37.12;98441.06;5038442;28;20567;-70
2023/10/05 12:02:14;;;;;;;10.17;3.80;;;;;;;22.83;37.15;98430.22;5037719;28;20706;-71
2023/10/05 12:04:39;;;;;;;10.30;3.47;;;;;;;22.84;36.88;98430.00;5035426;28;20279;-72
2023/10/05 12:07:05;;;;;;;6.93;3.93;;;;;;;22.91;37.40;98418.50;5022925;28;20196;-71